sensor_id;sensor_type;location;lat;lon;timestamp;P1;durP1;ratioP1;P2;durP2;ratioP2
5199;SDS011;2619;47.868;11.892;2024-02-15T00:01:46;3.80;;;2.40;;
5199;SDS011;2619;47.868;11.892;2024-02-15T00:04:12;4.00;;;2.40;;
5199;SDS011;2619;47.868;11.892;2024-02-15T00:06:38;4.47;;;2.10;;
5199;SDS011;2619;47.868;11.892;2024-02-15T00:09:04;3.77;;;1.83;;
5199;SDS011;2619;47.868;11.892;2024-02-15T00:11:30;4.50;;;2.67;;
5199;SDS011;2619;47.868;11.892;2024-02-15T00:13:57;6.33;;;4.60;;
5199;SDS011;2619;47.868;11.892;2024-02-15T00:18:58;7.60;;;4.90;;
5199;SDS011;2619;47.868;11.892;2024-02-15T00:21:24;11.87;;;5.60;;
5199;SDS011;2619;47.868;11.892;2024-02-15T00:23:50;9.10;;;4.97;;
5199;SDS011;2619;47.868;11.892;2024-02-15T00:26:19;10.13;;;5.67;;
5199;SDS011;2619;47.868;11.892;2024-02-15T00:28:45;7.43;;;5.37;;
5199;SDS011;2619;47.868;11.892;2024-02-15T00:31:12;7.47;;;4.93;;
5199;SDS011;2619;47.868;11.892;2024-02-15T00:33:38;7.73;;;4.87;;
5199;SDS011;2619;47.868;11.892;2024-02-15T00:36:04;7.40;;;4.53;;
5199;SDS011;2619;47.868;11.892;2024-02-15T00:38:31;7.50;;;4.20;;
5199;SDS011;2619;47.868;11.892;2024-02-15T00:40:57;8.37;;;4.30;;
5199;SDS011;2619;47.868;11.892;2024-02-15T00:43:26;5.77;;;4.13;;
5199;SDS011;2619;47.868;11.892;2024-02-15T00:45:53;6.13;;;3.90;;
5199;SDS011;2619;47.868;11.892;2024-02-15T00:48:19;6.50;;;3.70;;
5199;SDS011;2619;47.868;11.892;2024-02-15T00:50:45;6.90;;;4.40;;
5199;SDS011;2619;47.868;11.892;2024-02-15T00:53:11;5.50;;;3.93;;
5199;SDS011;2619;47.868;11.892;2024-02-15T00:55:37;6.90;;;4.23;;
5199;SDS011;2619;47.868;11.892;2024-02-15T00:58:03;7.40;;;3.73;;
5199;SDS011;2619;47.868;11.892;2024-02-15T01:00:29;4.83;;;2.97;;
5199;SDS011;2619;47.868;11.892;2024-02-15T01:02:55;4.57;;;3.00;;
5199;SDS011;2619;47.868;11.892;2024-02-15T01:05:21;4.80;;;2.50;;
5199;SDS011;2619;47.868;11.892;2024-02-15T01:07:49;5.10;;;2.90;;
5199;SDS011;2619;47.868;11.892;2024-02-15T01:10:15;4.30;;;2.40;;
5199;SDS011;2619;47.868;11.892;2024-02-15T01:12:41;4.13;;;2.20;;
5199;SDS011;2619;47.868;11.892;2024-02-15T01:15:07;4.23;;;2.30;;
5199;SDS011;2619;47.868;11.892;2024-02-15T01:17:33;4.10;;;2.50;;
5199;SDS011;2619;47.868;11.892;2024-02-15T01:19:59;3.43;;;2.00;;
5199;SDS011;2619;47.868;11.892;2024-02-15T01:22:25;3.37;;;1.73;;
5199;SDS011;2619;47.868;11.892;2024-02-15T01:24:52;4.10;;;2.43;;
5199;SDS011;2619;47.868;11.892;2024-02-15T01:27:17;4.20;;;2.00;;
5199;SDS011;2619;47.868;11.892;2024-02-15T01:29:43;4.00;;;2.00;;
5199;SDS011;2619;47.868;11.892;2024-02-15T01:32:10;4.47;;;2.20;;
5199;SDS011;2619;47.868;11.892;2024-02-15T01:34:36;3.50;;;1.67;;
5199;SDS011;2619;47.868;11.892;2024-02-15T01:37:02;3.10;;;1.67;;
5199;SDS011;2619;47.868;11.892;2024-02-15T01:39:28;2.83;;;1.60;;
5199;SDS011;2619;47.868;11.892;2024-02-15T01:41:54;6.87;;;2.57;;
5199;SDS011;2619;47.868;11.892;2024-02-15T01:44:21;3.53;;;2.23;;
5199;SDS011;2619;47.868;11.892;2024-02-15T01:46:49;3.90;;;2.33;;
5199;SDS011;2619;47.868;11.892;2024-02-15T01:49:18;5.03;;;2.73;;
5199;SDS011;2619;47.868;11.892;2024-02-15T01:51:44;5.30;;;2.20;;
5199;SDS011;2619;47.868;11.892;2024-02-15T01:54:11;5.60;;;2.53;;
5199;SDS011;2619;47.868;11.892;2024-02-15T01:56:37;6.10;;;3.43;;
5199;SDS011;2619;47.868;11.892;2024-02-15T01:59:03;4.63;;;2.77;;
5199;SDS011;2619;47.868;11.892;2024-02-15T02:01:30;4.97;;;3.00;;
5199;SDS011;2619;47.868;11.892;2024-02-15T02:03:58;5.17;;;3.17;;
5199;SDS011;2619;47.868;11.892;2024-02-15T02:06:24;3.80;;;2.20;;
5199;SDS011;2619;47.868;11.892;2024-02-15T02:08:50;4.60;;;1.90;;
5199;SDS011;2619;47.868;11.892;2024-02-15T02:11:16;4.17;;;2.60;;
5199;SDS011;2619;47.868;11.892;2024-02-15T02:13:42;4.43;;;2.10;;
5199;SDS011;2619;47.868;11.892;2024-02-15T02:16:27;3.73;;;2.13;;
5199;SDS011;2619;47.868;11.892;2024-02-15T02:18:56;5.10;;;2.20;;
5199;SDS011;2619;47.868;11.892;2024-02-15T02:21:23;6.23;;;2.23;;
5199;SDS011;2619;47.868;11.892;2024-02-15T02:23:52;3.70;;;2.10;;
5199;SDS011;2619;47.868;11.892;2024-02-15T02:26:20;3.87;;;1.80;;
5199;SDS011;2619;47.868;11.892;2024-02-15T02:28:46;3.37;;;1.77;;
5199;SDS011;2619;47.868;11.892;2024-02-15T02:31:12;2.70;;;1.23;;
5199;SDS011;2619;47.868;11.892;2024-02-15T02:33:39;3.33;;;1.93;;
5199;SDS011;2619;47.868;11.892;2024-02-15T02:36:05;4.90;;;2.17;;
5199;SDS011;2619;47.868;11.892;2024-02-15T02:38:37;5.03;;;2.23;;
5199;SDS011;2619;47.868;11.892;2024-02-15T02:41:06;4.50;;;2.30;;
5199;SDS011;2619;47.868;11.892;2024-02-15T02:43:32;3.40;;;2.40;;
5199;SDS011;2619;47.868;11.892;2024-02-15T02:45:58;3.13;;;2.13;;
5199;SDS011;2619;47.868;11.892;2024-02-15T02:48:24;2.97;;;1.90;;
5199;SDS011;2619;47.868;11.892;2024-02-15T02:50:50;4.67;;;2.57;;
5199;SDS011;2619;47.868;11.892;2024-02-15T02:53:16;3.90;;;2.13;;
5199;SDS011;2619;47.868;11.892;2024-02-15T02:55:42;3.63;;;2.03;;
5199;SDS011;2619;47.868;11.892;2024-02-15T02:58:08;3.20;;;2.20;;
5199;SDS011;2619;47.868;11.892;2024-02-15T03:00:34;4.10;;;2.27;;
5199;SDS011;2619;47.868;11.892;2024-02-15T03:03:00;3.70;;;1.83;;
5199;SDS011;2619;47.868;11.892;2024-02-15T03:05:26;4.20;;;1.83;;
5199;SDS011;2619;47.868;11.892;2024-02-15T03:07:52;2.83;;;1.60;;
5199;SDS011;2619;47.868;11.892;2024-02-15T03:10:18;3.33;;;1.70;;
5199;SDS011;2619;47.868;11.892;2024-02-15T03:12:44;3.00;;;1.70;;
5199;SDS011;2619;47.868;11.892;2024-02-15T03:15:13;3.90;;;2.00;;
5199;SDS011;2619;47.868;11.892;2024-02-15T03:17:43;4.20;;;1.77;;
5199;SDS011;2619;47.868;11.892;2024-02-15T03:20:09;3.23;;;1.90;;
5199;SDS011;2619;47.868;11.892;2024-02-15T03:22:54;3.33;;;1.70;;
5199;SDS011;2619;47.868;11.892;2024-02-15T03:25:20;3.57;;;1.90;;
5199;SDS011;2619;47.868;11.892;2024-02-15T03:27:50;4.03;;;1.67;;
5199;SDS011;2619;47.868;11.892;2024-02-15T03:30:19;3.47;;;1.60;;
5199;SDS011;2619;47.868;11.892;2024-02-15T03:32:46;4.10;;;2.20;;
5199;SDS011;2619;47.868;11.892;2024-02-15T03:35:13;3.80;;;2.03;;
5199;SDS011;2619;47.868;11.892;2024-02-15T03:37:40;3.17;;;1.53;;
5199;SDS011;2619;47.868;11.892;2024-02-15T03:40:06;2.93;;;1.20;;
5199;SDS011;2619;47.868;11.892;2024-02-15T03:42:33;2.80;;;1.63;;
5199;SDS011;2619;47.868;11.892;2024-02-15T03:45:01;4.30;;;2.10;;
5199;SDS011;2619;47.868;11.892;2024-02-15T03:47:27;3.80;;;1.30;;
5199;SDS011;2619;47.868;11.892;2024-02-15T03:49:54;3.00;;;1.80;;
5199;SDS011;2619;47.868;11.892;2024-02-15T03:52:20;3.00;;;1.70;;
5199;SDS011;2619;47.868;11.892;2024-02-15T03:54:47;3.17;;;1.47;;
5199;SDS011;2619;47.868;11.892;2024-02-15T03:57:13;2.77;;;1.47;;
5199;SDS011;2619;47.868;11.892;2024-02-15T03:59:41;3.40;;;1.60;;
5199;SDS011;2619;47.868;11.892;2024-02-15T04:02:07;4.20;;;1.50;;
5199;SDS011;2619;47.868;11.892;2024-02-15T04:04:39;2.57;;;1.40;;
5199;SDS011;2619;47.868;11.892;2024-02-15T04:07:11;4.10;;;1.43;;
5199;SDS011;2619;47.868;11.892;2024-02-15T04:09:37;3.00;;;1.57;;
5199;SDS011;2619;47.868;11.892;2024-02-15T04:12:03;2.97;;;1.77;;
5199;SDS011;2619;47.868;11.892;2024-02-15T04:14:29;2.63;;;1.57;;
5199;SDS011;2619;47.868;11.892;2024-02-15T04:16:58;3.07;;;1.40;;
5199;SDS011;2619;47.868;11.892;2024-02-15T04:19:25;5.30;;;1.30;;
5199;SDS011;2619;47.868;11.892;2024-02-15T04:21:51;2.40;;;1.20;;
5199;SDS011;2619;47.868;11.892;2024-02-15T04:24:17;2.33;;;1.23;;
5199;SDS011;2619;47.868;11.892;2024-02-15T04:26:43;2.80;;;1.30;;
5199;SDS011;2619;47.868;11.892;2024-02-15T04:29:10;4.43;;;1.53;;
5199;SDS011;2619;47.868;11.892;2024-02-15T04:31:37;3.10;;;1.67;;
5199;SDS011;2619;47.868;11.892;2024-02-15T04:34:04;2.43;;;1.50;;
5199;SDS011;2619;47.868;11.892;2024-02-15T04:36:30;2.47;;;1.40;;
5199;SDS011;2619;47.868;11.892;2024-02-15T04:38:59;3.57;;;1.97;;
5199;SDS011;2619;47.868;11.892;2024-02-15T04:41:27;3.23;;;1.83;;
5199;SDS011;2619;47.868;11.892;2024-02-15T04:43:54;6.43;;;2.23;;
5199;SDS011;2619;47.868;11.892;2024-02-15T04:46:20;3.47;;;1.90;;
5199;SDS011;2619;47.868;11.892;2024-02-15T04:48:46;3.03;;;1.53;;
5199;SDS011;2619;47.868;11.892;2024-02-15T04:51:14;3.03;;;1.40;;
5199;SDS011;2619;47.868;11.892;2024-02-15T04:53:41;3.03;;;1.77;;
5199;SDS011;2619;47.868;11.892;2024-02-15T04:56:07;2.50;;;1.33;;
5199;SDS011;2619;47.868;11.892;2024-02-15T04:58:38;3.20;;;1.57;;
5199;SDS011;2619;47.868;11.892;2024-02-15T05:01:11;3.90;;;1.77;;
5199;SDS011;2619;47.868;11.892;2024-02-15T05:03:37;3.53;;;1.40;;
5199;SDS011;2619;47.868;11.892;2024-02-15T05:06:03;2.50;;;1.30;;
5199;SDS011;2619;47.868;11.892;2024-02-15T05:08:31;3.67;;;1.70;;
5199;SDS011;2619;47.868;11.892;2024-02-15T05:10:57;2.97;;;1.40;;
5199;SDS011;2619;47.868;11.892;2024-02-15T05:13:26;3.20;;;1.50;;
5199;SDS011;2619;47.868;11.892;2024-02-15T05:15:52;3.53;;;1.40;;
5199;SDS011;2619;47.868;11.892;2024-02-15T05:18:18;3.40;;;1.70;;
5199;SDS011;2619;47.868;11.892;2024-02-15T05:20:44;3.50;;;1.73;;
5199;SDS011;2619;47.868;11.892;2024-02-15T05:23:10;3.00;;;1.53;;
5199;SDS011;2619;47.868;11.892;2024-02-15T05:25:37;4.67;;;1.80;;
5199;SDS011;2619;47.868;11.892;2024-02-15T05:28:03;4.50;;;1.90;;
5199;SDS011;2619;47.868;11.892;2024-02-15T05:30:31;5.07;;;2.20;;
5199;SDS011;2619;47.868;11.892;2024-02-15T05:32:57;3.70;;;1.60;;
5199;SDS011;2619;47.868;11.892;2024-02-15T05:35:23;2.80;;;1.53;;
5199;SDS011;2619;47.868;11.892;2024-02-15T05:37:51;3.27;;;1.80;;
5199;SDS011;2619;47.868;11.892;2024-02-15T05:40:18;2.90;;;1.70;;
5199;SDS011;2619;47.868;11.892;2024-02-15T05:42:44;8.40;;;3.20;;
5199;SDS011;2619;47.868;11.892;2024-02-15T05:47:52;5.00;;;2.67;;
5199;SDS011;2619;47.868;11.892;2024-02-15T05:50:18;5.20;;;2.80;;
5199;SDS011;2619;47.868;11.892;2024-02-15T05:52:48;3.30;;;1.60;;
5199;SDS011;2619;47.868;11.892;2024-02-15T05:55:16;4.03;;;1.93;;
5199;SDS011;2619;47.868;11.892;2024-02-15T05:57:43;4.30;;;2.10;;
5199;SDS011;2619;47.868;11.892;2024-02-15T06:00:10;3.13;;;1.50;;
5199;SDS011;2619;47.868;11.892;2024-02-15T06:02:36;2.60;;;1.30;;
5199;SDS011;2619;47.868;11.892;2024-02-15T06:05:02;4.27;;;1.50;;
5199;SDS011;2619;47.868;11.892;2024-02-15T06:07:32;3.80;;;1.53;;
5199;SDS011;2619;47.868;11.892;2024-02-15T06:09:58;3.03;;;1.50;;
5199;SDS011;2619;47.868;11.892;2024-02-15T06:12:29;8.93;;;1.80;;
5199;SDS011;2619;47.868;11.892;2024-02-15T06:14:55;4.43;;;1.60;;
5199;SDS011;2619;47.868;11.892;2024-02-15T06:17:21;2.93;;;1.47;;
5199;SDS011;2619;47.868;11.892;2024-02-15T06:19:47;7.70;;;2.07;;
5199;SDS011;2619;47.868;11.892;2024-02-15T06:22:13;3.70;;;1.47;;
5199;SDS011;2619;47.868;11.892;2024-02-15T06:24:39;3.20;;;1.40;;
5199;SDS011;2619;47.868;11.892;2024-02-15T06:27:06;6.50;;;1.50;;
5199;SDS011;2619;47.868;11.892;2024-02-15T06:29:32;2.63;;;1.20;;
5199;SDS011;2619;47.868;11.892;2024-02-15T06:32:17;6.57;;;2.00;;
5199;SDS011;2619;47.868;11.892;2024-02-15T06:35:01;3.70;;;1.50;;
5199;SDS011;2619;47.868;11.892;2024-02-15T06:37:46;3.37;;;1.60;;
5199;SDS011;2619;47.868;11.892;2024-02-15T06:40:30;10.87;;;1.80;;
5199;SDS011;2619;47.868;11.892;2024-02-15T06:42:58;2.83;;;1.87;;
5199;SDS011;2619;47.868;11.892;2024-02-15T06:45:24;3.40;;;1.70;;
5199;SDS011;2619;47.868;11.892;2024-02-15T06:47:51;4.00;;;2.00;;
5199;SDS011;2619;47.868;11.892;2024-02-15T06:50:17;7.57;;;2.07;;
5199;SDS011;2619;47.868;11.892;2024-02-15T06:52:43;3.63;;;2.00;;
5199;SDS011;2619;47.868;11.892;2024-02-15T06:55:09;7.27;;;2.53;;
5199;SDS011;2619;47.868;11.892;2024-02-15T06:57:37;3.37;;;1.80;;
5199;SDS011;2619;47.868;11.892;2024-02-15T07:00:05;5.50;;;1.90;;
5199;SDS011;2619;47.868;11.892;2024-02-15T07:02:35;4.67;;;2.40;;
5199;SDS011;2619;47.868;11.892;2024-02-15T07:05:01;5.40;;;2.83;;
5199;SDS011;2619;47.868;11.892;2024-02-15T07:07:30;6.30;;;3.13;;
5199;SDS011;2619;47.868;11.892;2024-02-15T07:09:57;6.97;;;3.00;;
5199;SDS011;2619;47.868;11.892;2024-02-15T07:12:23;4.07;;;2.83;;
5199;SDS011;2619;47.868;11.892;2024-02-15T07:14:49;6.33;;;4.00;;
5199;SDS011;2619;47.868;11.892;2024-02-15T07:17:16;4.87;;;3.40;;
5199;SDS011;2619;47.868;11.892;2024-02-15T07:19:45;5.47;;;4.50;;
5199;SDS011;2619;47.868;11.892;2024-02-15T07:22:14;13.30;;;11.30;;
5199;SDS011;2619;47.868;11.892;2024-02-15T07:24:40;12.70;;;10.40;;
5199;SDS011;2619;47.868;11.892;2024-02-15T07:27:06;10.90;;;9.03;;
5199;SDS011;2619;47.868;11.892;2024-02-15T07:29:32;7.13;;;4.27;;
5199;SDS011;2619;47.868;11.892;2024-02-15T07:32:00;4.10;;;2.73;;
5199;SDS011;2619;47.868;11.892;2024-02-15T07:34:30;3.47;;;2.30;;
5199;SDS011;2619;47.868;11.892;2024-02-15T07:36:56;2.90;;;1.33;;
5199;SDS011;2619;47.868;11.892;2024-02-15T07:39:25;2.40;;;1.40;;
5199;SDS011;2619;47.868;11.892;2024-02-15T07:41:55;3.23;;;1.93;;
5199;SDS011;2619;47.868;11.892;2024-02-15T07:44:23;3.30;;;1.90;;
5199;SDS011;2619;47.868;11.892;2024-02-15T07:46:49;3.60;;;1.90;;
5199;SDS011;2619;47.868;11.892;2024-02-15T07:49:15;3.57;;;1.93;;
5199;SDS011;2619;47.868;11.892;2024-02-15T07:51:45;4.67;;;2.07;;
5199;SDS011;2619;47.868;11.892;2024-02-15T07:54:17;3.67;;;1.70;;
5199;SDS011;2619;47.868;11.892;2024-02-15T07:56:46;4.27;;;2.40;;
5199;SDS011;2619;47.868;11.892;2024-02-15T07:59:12;3.23;;;1.70;;
5199;SDS011;2619;47.868;11.892;2024-02-15T08:01:40;3.07;;;1.90;;
5199;SDS011;2619;47.868;11.892;2024-02-15T08:04:06;3.97;;;1.93;;
5199;SDS011;2619;47.868;11.892;2024-02-15T08:06:33;3.33;;;1.70;;
5199;SDS011;2619;47.868;11.892;2024-02-15T08:09:01;3.70;;;1.53;;
5199;SDS011;2619;47.868;11.892;2024-02-15T08:11:31;3.10;;;1.53;;
5199;SDS011;2619;47.868;11.892;2024-02-15T08:13:57;2.60;;;1.40;;
5199;SDS011;2619;47.868;11.892;2024-02-15T08:16:26;3.80;;;1.77;;
5199;SDS011;2619;47.868;11.892;2024-02-15T08:18:52;3.40;;;1.93;;
5199;SDS011;2619;47.868;11.892;2024-02-15T08:21:25;4.60;;;2.93;;
5199;SDS011;2619;47.868;11.892;2024-02-15T08:23:52;4.57;;;2.30;;
5199;SDS011;2619;47.868;11.892;2024-02-15T08:26:18;5.20;;;3.00;;
5199;SDS011;2619;47.868;11.892;2024-02-15T08:28:44;5.57;;;2.90;;
5199;SDS011;2619;47.868;11.892;2024-02-15T08:31:10;4.30;;;2.73;;
5199;SDS011;2619;47.868;11.892;2024-02-15T08:33:39;5.30;;;2.57;;
5199;SDS011;2619;47.868;11.892;2024-02-15T08:36:05;5.37;;;2.40;;
5199;SDS011;2619;47.868;11.892;2024-02-15T08:38:32;4.17;;;1.80;;
5199;SDS011;2619;47.868;11.892;2024-02-15T08:40:59;3.90;;;1.70;;
5199;SDS011;2619;47.868;11.892;2024-02-15T08:43:25;2.67;;;1.40;;
5199;SDS011;2619;47.868;11.892;2024-02-15T08:45:51;5.00;;;1.70;;
5199;SDS011;2619;47.868;11.892;2024-02-15T08:48:18;3.43;;;1.50;;
5199;SDS011;2619;47.868;11.892;2024-02-15T08:50:44;2.67;;;1.10;;
5199;SDS011;2619;47.868;11.892;2024-02-15T08:53:10;2.40;;;1.47;;
5199;SDS011;2619;47.868;11.892;2024-02-15T08:55:36;3.20;;;1.60;;
5199;SDS011;2619;47.868;11.892;2024-02-15T08:58:02;3.30;;;2.00;;
5199;SDS011;2619;47.868;11.892;2024-02-15T09:00:29;3.80;;;2.00;;
5199;SDS011;2619;47.868;11.892;2024-02-15T09:02:55;3.10;;;1.73;;
5199;SDS011;2619;47.868;11.892;2024-02-15T09:05:22;4.40;;;2.20;;
5199;SDS011;2619;47.868;11.892;2024-02-15T09:07:48;3.50;;;1.63;;
5199;SDS011;2619;47.868;11.892;2024-02-15T09:10:16;3.57;;;2.30;;
5199;SDS011;2619;47.868;11.892;2024-02-15T09:12:42;2.77;;;2.00;;
5199;SDS011;2619;47.868;11.892;2024-02-15T09:15:10;3.40;;;1.97;;
5199;SDS011;2619;47.868;11.892;2024-02-15T09:17:36;4.00;;;2.50;;
5199;SDS011;2619;47.868;11.892;2024-02-15T09:22:32;4.63;;;2.50;;
5199;SDS011;2619;47.868;11.892;2024-02-15T09:24:58;5.13;;;2.30;;
5199;SDS011;2619;47.868;11.892;2024-02-15T09:27:24;4.40;;;2.50;;
5199;SDS011;2619;47.868;11.892;2024-02-15T09:29:50;3.60;;;2.47;;
5199;SDS011;2619;47.868;11.892;2024-02-15T09:32:16;4.57;;;2.70;;
5199;SDS011;2619;47.868;11.892;2024-02-15T09:34:42;3.60;;;2.23;;
5199;SDS011;2619;47.868;11.892;2024-02-15T09:37:08;4.47;;;2.83;;
5199;SDS011;2619;47.868;11.892;2024-02-15T09:39:34;5.57;;;2.80;;
5199;SDS011;2619;47.868;11.892;2024-02-15T09:42:01;4.97;;;2.30;;
5199;SDS011;2619;47.868;11.892;2024-02-15T09:44:27;4.47;;;2.40;;
5199;SDS011;2619;47.868;11.892;2024-02-15T09:47:11;5.53;;;2.50;;
5199;SDS011;2619;47.868;11.892;2024-02-15T09:49:40;3.87;;;2.60;;
5199;SDS011;2619;47.868;11.892;2024-02-15T09:52:07;6.70;;;2.03;;
5199;SDS011;2619;47.868;11.892;2024-02-15T09:54:38;3.83;;;2.00;;
5199;SDS011;2619;47.868;11.892;2024-02-15T09:57:05;3.60;;;2.40;;
5199;SDS011;2619;47.868;11.892;2024-02-15T09:59:32;3.40;;;1.70;;
5199;SDS011;2619;47.868;11.892;2024-02-15T10:02:01;3.70;;;1.60;;
5199;SDS011;2619;47.868;11.892;2024-02-15T10:04:27;2.97;;;1.90;;
5199;SDS011;2619;47.868;11.892;2024-02-15T10:06:53;3.40;;;1.80;;
5199;SDS011;2619;47.868;11.892;2024-02-15T10:09:26;6.93;;;1.90;;
5199;SDS011;2619;47.868;11.892;2024-02-15T10:11:58;5.57;;;1.67;;
5199;SDS011;2619;47.868;11.892;2024-02-15T10:14:24;5.10;;;2.20;;
5199;SDS011;2619;47.868;11.892;2024-02-15T10:16:51;3.00;;;2.00;;
5199;SDS011;2619;47.868;11.892;2024-02-15T10:19:18;3.70;;;2.80;;
5199;SDS011;2619;47.868;11.892;2024-02-15T10:21:49;2.47;;;1.70;;
5199;SDS011;2619;47.868;11.892;2024-02-15T10:24:17;4.30;;;2.13;;
5199;SDS011;2619;47.868;11.892;2024-02-15T10:26:44;3.50;;;2.30;;
5199;SDS011;2619;47.868;11.892;2024-02-15T10:29:13;3.83;;;1.80;;
5199;SDS011;2619;47.868;11.892;2024-02-15T10:31:51;3.00;;;2.00;;
5199;SDS011;2619;47.868;11.892;2024-02-15T10:34:18;3.63;;;2.07;;
5199;SDS011;2619;47.868;11.892;2024-02-15T10:36:44;3.40;;;1.83;;
5199;SDS011;2619;47.868;11.892;2024-02-15T10:39:10;2.90;;;1.83;;
5199;SDS011;2619;47.868;11.892;2024-02-15T10:41:49;4.77;;;1.90;;
5199;SDS011;2619;47.868;11.892;2024-02-15T10:44:24;3.57;;;2.00;;
5199;SDS011;2619;47.868;11.892;2024-02-15T10:46:52;3.43;;;1.90;;
5199;SDS011;2619;47.868;11.892;2024-02-15T10:51:45;3.33;;;1.30;;
5199;SDS011;2619;47.868;11.892;2024-02-15T10:54:15;2.83;;;1.20;;
5199;SDS011;2619;47.868;11.892;2024-02-15T10:56:45;4.77;;;1.63;;
5199;SDS011;2619;47.868;11.892;2024-02-15T10:59:19;3.80;;;1.57;;
5199;SDS011;2619;47.868;11.892;2024-02-15T11:01:45;3.33;;;1.60;;
5199;SDS011;2619;47.868;11.892;2024-02-15T11:04:14;4.37;;;2.00;;
5199;SDS011;2619;47.868;11.892;2024-02-15T11:06:42;2.50;;;1.40;;
5199;SDS011;2619;47.868;11.892;2024-02-15T11:09:09;3.27;;;1.80;;
5199;SDS011;2619;47.868;11.892;2024-02-15T11:11:36;2.43;;;1.20;;
5199;SDS011;2619;47.868;11.892;2024-02-15T11:14:22;2.30;;;1.10;;
5199;SDS011;2619;47.868;11.892;2024-02-15T11:16:48;2.20;;;1.30;;
5199;SDS011;2619;47.868;11.892;2024-02-15T11:22:00;3.77;;;1.10;;
5199;SDS011;2619;47.868;11.892;2024-02-15T11:24:32;3.80;;;1.47;;
5199;SDS011;2619;47.868;11.892;2024-02-15T11:27:01;2.50;;;1.10;;
5199;SDS011;2619;47.868;11.892;2024-02-15T11:35:02;2.90;;;1.20;;
5199;SDS011;2619;47.868;11.892;2024-02-15T11:42:40;2.77;;;1.40;;
5199;SDS011;2619;47.868;11.892;2024-02-15T11:45:06;2.03;;;0.93;;
5199;SDS011;2619;47.868;11.892;2024-02-15T11:47:39;2.43;;;1.00;;
5199;SDS011;2619;47.868;11.892;2024-02-15T11:50:13;3.17;;;1.10;;
5199;SDS011;2619;47.868;11.892;2024-02-15T11:52:40;3.07;;;1.13;;
5199;SDS011;2619;47.868;11.892;2024-02-15T11:55:07;2.20;;;1.10;;
5199;SDS011;2619;47.868;11.892;2024-02-15T11:57:38;2.47;;;1.20;;
5199;SDS011;2619;47.868;11.892;2024-02-15T12:00:27;5.53;;;1.30;;
5199;SDS011;2619;47.868;11.892;2024-02-15T12:03:13;4.17;;;1.27;;
5199;SDS011;2619;47.868;11.892;2024-02-15T12:05:58;2.40;;;1.00;;
5199;SDS011;2619;47.868;11.892;2024-02-15T12:08:49;2.63;;;1.00;;
5199;SDS011;2619;47.868;11.892;2024-02-15T12:11:34;2.33;;;1.17;;
5199;SDS011;2619;47.868;11.892;2024-02-15T12:14:19;2.30;;;1.00;;
5199;SDS011;2619;47.868;11.892;2024-02-15T12:17:04;2.57;;;0.97;;
5199;SDS011;2619;47.868;11.892;2024-02-15T12:19:49;2.47;;;0.80;;
5199;SDS011;2619;47.868;11.892;2024-02-15T12:22:20;2.20;;;1.07;;
5199;SDS011;2619;47.868;11.892;2024-02-15T12:24:59;3.17;;;1.10;;
5199;SDS011;2619;47.868;11.892;2024-02-15T12:27:26;4.57;;;1.63;;
5199;SDS011;2619;47.868;11.892;2024-02-15T12:32:22;4.97;;;1.47;;
5199;SDS011;2619;47.868;11.892;2024-02-15T12:34:49;2.30;;;1.27;;
5199;SDS011;2619;47.868;11.892;2024-02-15T12:37:17;3.90;;;1.63;;
5199;SDS011;2619;47.868;11.892;2024-02-15T12:39:43;3.43;;;1.57;;
5199;SDS011;2619;47.868;11.892;2024-02-15T12:42:09;2.77;;;1.23;;
5199;SDS011;2619;47.868;11.892;2024-02-15T12:44:36;2.73;;;1.30;;
5199;SDS011;2619;47.868;11.892;2024-02-15T12:47:02;2.17;;;1.23;;
5199;SDS011;2619;47.868;11.892;2024-02-15T12:49:30;3.37;;;0.97;;
5199;SDS011;2619;47.868;11.892;2024-02-15T12:54:42;3.13;;;1.20;;
5199;SDS011;2619;47.868;11.892;2024-02-15T12:57:09;2.40;;;1.30;;
5199;SDS011;2619;47.868;11.892;2024-02-15T12:59:35;3.37;;;1.37;;
5199;SDS011;2619;47.868;11.892;2024-02-15T13:02:02;2.00;;;0.97;;
5199;SDS011;2619;47.868;11.892;2024-02-15T13:04:29;2.13;;;1.20;;
5199;SDS011;2619;47.868;11.892;2024-02-15T13:06:55;3.20;;;1.27;;
5199;SDS011;2619;47.868;11.892;2024-02-15T13:09:21;4.07;;;1.30;;
5199;SDS011;2619;47.868;11.892;2024-02-15T13:11:48;2.83;;;1.30;;
5199;SDS011;2619;47.868;11.892;2024-02-15T13:14:15;2.50;;;1.27;;
5199;SDS011;2619;47.868;11.892;2024-02-15T13:16:41;5.53;;;1.40;;
5199;SDS011;2619;47.868;11.892;2024-02-15T13:19:09;3.20;;;1.40;;
5199;SDS011;2619;47.868;11.892;2024-02-15T13:21:35;2.20;;;1.33;;
5199;SDS011;2619;47.868;11.892;2024-02-15T13:24:01;3.50;;;1.67;;
5199;SDS011;2619;47.868;11.892;2024-02-15T13:26:30;3.00;;;1.40;;
5199;SDS011;2619;47.868;11.892;2024-02-15T13:28:57;2.80;;;1.73;;
5199;SDS011;2619;47.868;11.892;2024-02-15T13:31:23;2.57;;;1.60;;
5199;SDS011;2619;47.868;11.892;2024-02-15T13:33:49;4.77;;;1.53;;
5199;SDS011;2619;47.868;11.892;2024-02-15T13:36:16;3.37;;;1.60;;
5199;SDS011;2619;47.868;11.892;2024-02-15T13:38:42;3.40;;;1.80;;
5199;SDS011;2619;47.868;11.892;2024-02-15T13:41:08;2.93;;;1.57;;
5199;SDS011;2619;47.868;11.892;2024-02-15T13:43:34;3.00;;;1.70;;
5199;SDS011;2619;47.868;11.892;2024-02-15T13:46:00;3.53;;;1.30;;
5199;SDS011;2619;47.868;11.892;2024-02-15T13:48:30;4.70;;;1.50;;
5199;SDS011;2619;47.868;11.892;2024-02-15T13:50:56;4.47;;;1.87;;
5199;SDS011;2619;47.868;11.892;2024-02-15T13:53:23;3.33;;;1.70;;
5199;SDS011;2619;47.868;11.892;2024-02-15T13:55:50;2.73;;;1.77;;
5199;SDS011;2619;47.868;11.892;2024-02-15T13:58:17;2.83;;;1.73;;
5199;SDS011;2619;47.868;11.892;2024-02-15T14:00:43;6.23;;;2.83;;
5199;SDS011;2619;47.868;11.892;2024-02-15T14:03:10;4.20;;;2.47;;
5199;SDS011;2619;47.868;11.892;2024-02-15T14:05:36;4.70;;;1.90;;
5199;SDS011;2619;47.868;11.892;2024-02-15T14:08:05;3.00;;;1.80;;
5199;SDS011;2619;47.868;11.892;2024-02-15T14:10:33;4.00;;;2.30;;
5199;SDS011;2619;47.868;11.892;2024-02-15T14:13:03;3.80;;;2.10;;
5199;SDS011;2619;47.868;11.892;2024-02-15T14:15:34;5.10;;;2.33;;
5199;SDS011;2619;47.868;11.892;2024-02-15T14:18:11;4.97;;;2.03;;
5199;SDS011;2619;47.868;11.892;2024-02-15T14:20:43;2.97;;;1.90;;
5199;SDS011;2619;47.868;11.892;2024-02-15T14:23:11;6.17;;;2.50;;
5199;SDS011;2619;47.868;11.892;2024-02-15T14:25:40;3.67;;;2.20;;
5199;SDS011;2619;47.868;11.892;2024-02-15T14:28:07;4.90;;;2.13;;
5199;SDS011;2619;47.868;11.892;2024-02-15T14:30:36;3.13;;;2.30;;
5199;SDS011;2619;47.868;11.892;2024-02-15T14:33:21;2.67;;;1.87;;
5199;SDS011;2619;47.868;11.892;2024-02-15T14:35:47;3.63;;;1.93;;
5199;SDS011;2619;47.868;11.892;2024-02-15T14:38:14;4.53;;;2.10;;
5199;SDS011;2619;47.868;11.892;2024-02-15T14:40:42;4.30;;;2.43;;
5199;SDS011;2619;47.868;11.892;2024-02-15T14:43:10;3.20;;;2.03;;
5199;SDS011;2619;47.868;11.892;2024-02-15T14:45:38;4.03;;;2.10;;
5199;SDS011;2619;47.868;11.892;2024-02-15T14:48:06;3.43;;;2.27;;
5199;SDS011;2619;47.868;11.892;2024-02-15T14:50:35;4.53;;;1.70;;
5199;SDS011;2619;47.868;11.892;2024-02-15T14:53:01;2.90;;;1.70;;
5199;SDS011;2619;47.868;11.892;2024-02-15T14:55:26;3.13;;;2.27;;
5199;SDS011;2619;47.868;11.892;2024-02-15T14:57:54;5.23;;;2.00;;
5199;SDS011;2619;47.868;11.892;2024-02-15T15:00:20;3.10;;;1.80;;
5199;SDS011;2619;47.868;11.892;2024-02-15T15:02:48;3.83;;;2.03;;
5199;SDS011;2619;47.868;11.892;2024-02-15T15:05:15;4.87;;;2.27;;
5199;SDS011;2619;47.868;11.892;2024-02-15T15:08:00;3.83;;;1.97;;
5199;SDS011;2619;47.868;11.892;2024-02-15T15:10:45;3.30;;;2.10;;
5199;SDS011;2619;47.868;11.892;2024-02-15T15:13:30;3.87;;;2.50;;
5199;SDS011;2619;47.868;11.892;2024-02-15T15:15:56;3.30;;;1.90;;
5199;SDS011;2619;47.868;11.892;2024-02-15T15:18:22;3.37;;;1.70;;
5199;SDS011;2619;47.868;11.892;2024-02-15T15:20:48;4.73;;;1.80;;
5199;SDS011;2619;47.868;11.892;2024-02-15T15:23:15;2.57;;;1.53;;
5199;SDS011;2619;47.868;11.892;2024-02-15T15:25:41;3.63;;;1.93;;
5199;SDS011;2619;47.868;11.892;2024-02-15T15:28:07;4.07;;;2.07;;
5199;SDS011;2619;47.868;11.892;2024-02-15T15:30:34;4.20;;;1.77;;
5199;SDS011;2619;47.868;11.892;2024-02-15T15:33:01;5.37;;;1.60;;
5199;SDS011;2619;47.868;11.892;2024-02-15T15:35:27;2.97;;;1.40;;